createdAt,value
2023-04-25T00:00:56.442Z,8.40
2023-04-25T00:03:26.129Z,8.40
2023-04-25T00:05:54.077Z,8.50
2023-04-25T00:08:21.603Z,8.50
2023-04-25T00:10:49.826Z,8.60
2023-04-25T00:13:18.359Z,8.50
2023-04-25T00:15:49.056Z,8.50
2023-04-25T00:18:16.588Z,8.50
2023-04-25T00:20:47.345Z,8.50
2023-04-25T00:23:20.923Z,8.50
2023-04-25T00:25:50.792Z,8.60
2023-04-25T00:28:18.341Z,8.60
2023-04-25T00:30:45.888Z,8.70
2023-04-25T00:33:13.480Z,8.70
2023-04-25T00:35:41.158Z,8.80
2023-04-25T00:38:08.747Z,8.80
2023-04-25T00:40:36.413Z,8.90
2023-04-25T00:43:03.958Z,8.90
2023-04-25T00:45:31.652Z,8.90
2023-04-25T00:47:59.295Z,8.90
2023-04-25T00:50:26.829Z,8.80
2023-04-25T00:52:55.150Z,8.80
2023-04-25T00:55:23.227Z,8.80
2023-04-25T00:57:51.193Z,8.90
2023-04-25T01:00:19.734Z,8.90
2023-04-25T01:02:48.124Z,8.80
2023-04-25T01:05:15.679Z,8.70
2023-04-25T01:07:43.788Z,8.70
2023-04-25T01:10:11.476Z,8.80
2023-04-25T01:12:39.299Z,8.80
2023-04-25T01:15:07.446Z,8.80
2023-04-25T01:17:35.919Z,8.70
2023-04-25T01:20:08.439Z,8.80
2023-04-25T01:22:36.085Z,8.70
2023-04-25T01:25:04.335Z,8.70
2023-04-25T01:27:32.972Z,8.70
2023-04-25T01:30:01.124Z,8.70
2023-04-25T01:32:29.136Z,8.70
2023-04-25T01:34:56.902Z,8.70
2023-04-25T01:37:24.444Z,8.70
2023-04-25T01:39:52.175Z,8.70
2023-04-25T01:42:20.777Z,8.70
2023-04-25T01:44:48.823Z,8.80
2023-04-25T01:47:16.318Z,8.80
2023-04-25T01:49:44.532Z,8.80
2023-04-25T01:52:12.006Z,8.80
2023-04-25T01:54:44.907Z,8.90
2023-04-25T01:57:13.519Z,8.80
2023-04-25T01:59:44.757Z,8.80
2023-04-25T02:02:38.445Z,8.80
2023-04-25T02:05:09.086Z,8.80
2023-04-25T02:07:39.996Z,8.70
2023-04-25T02:10:08.774Z,8.70
2023-04-25T02:12:42.179Z,8.60
2023-04-25T02:15:24.251Z,8.60
2023-04-25T02:17:56.250Z,8.50
2023-04-25T02:20:25.696Z,8.60
2023-04-25T02:22:53.769Z,8.60
2023-04-25T02:25:22.709Z,8.60
2023-04-25T02:27:51.370Z,8.70
2023-04-25T02:30:18.873Z,8.70
2023-04-25T02:32:47.177Z,8.70
2023-04-25T02:35:14.852Z,8.70
2023-04-25T02:37:43.153Z,8.60
2023-04-25T02:40:11.033Z,8.60
2023-04-25T02:42:38.617Z,8.60
2023-04-25T02:45:06.706Z,8.70
2023-04-25T02:47:34.257Z,8.70
2023-04-25T02:50:01.834Z,8.70
2023-04-25T02:52:29.975Z,8.70
2023-04-25T02:55:06.335Z,8.70
2023-04-25T02:57:35.390Z,8.70
2023-04-25T03:00:05.622Z,8.70
2023-04-25T03:02:33.179Z,8.70
2023-04-25T03:05:00.789Z,8.70
2023-04-25T03:07:29.527Z,8.70
2023-04-25T03:09:57.701Z,8.60
2023-04-25T03:12:25.354Z,8.60
2023-04-25T03:14:53.072Z,8.60
2023-04-25T03:17:20.564Z,8.60
2023-04-25T03:19:48.221Z,8.60
2023-04-25T03:22:15.951Z,8.70
2023-04-25T03:24:43.524Z,8.70
2023-04-25T03:27:11.096Z,8.70
2023-04-25T03:29:38.628Z,8.70
2023-04-25T03:32:07.086Z,8.60
2023-04-25T03:34:34.656Z,8.60
2023-04-25T03:37:02.247Z,8.60
2023-04-25T03:39:32.422Z,8.60
2023-04-25T03:41:59.965Z,8.60
2023-04-25T03:44:29.949Z,8.60
2023-04-25T03:46:57.571Z,8.50
2023-04-25T03:49:26.144Z,8.50
2023-04-25T03:52:03.621Z,8.50
2023-04-25T03:54:36.930Z,8.50
2023-04-25T03:57:08.129Z,8.40
2023-04-25T03:59:39.130Z,8.40
2023-04-25T04:02:08.371Z,8.40
2023-04-25T04:04:38.435Z,8.10
2023-04-25T04:07:06.129Z,8.10
2023-04-25T04:09:37.170Z,8.20
2023-04-25T04:12:09.358Z,8.20
2023-04-25T04:14:39.193Z,8.30
2023-04-25T04:17:06.989Z,8.40
2023-04-25T04:19:34.521Z,8.40
2023-04-25T04:22:10.903Z,8.50
2023-04-25T04:24:40.207Z,8.50
2023-04-25T04:27:09.202Z,8.50
2023-04-25T04:29:49.917Z,8.60
2023-04-25T04:32:26.498Z,8.60
2023-04-25T04:34:55.871Z,8.60
2023-04-25T04:37:24.961Z,8.60
2023-04-25T04:39:53.187Z,8.60
2023-04-25T04:42:39.407Z,8.50
2023-04-25T04:45:19.095Z,8.60
2023-04-25T04:47:51.284Z,8.40
2023-04-25T04:50:37.806Z,8.40
2023-04-25T04:53:23.044Z,8.50
2023-04-25T04:56:03.294Z,8.50
2023-04-25T04:58:51.361Z,8.50
2023-04-25T05:01:38.251Z,8.60
2023-04-25T05:04:17.343Z,8.70
2023-04-25T05:06:47.508Z,8.70
2023-04-25T05:09:34.921Z,8.70
2023-04-25T05:12:17.861Z,8.60
2023-04-25T05:15:20.837Z,8.70
2023-04-25T05:18:07.260Z,8.60
2023-04-25T05:20:48.361Z,8.60
2023-04-25T05:23:48.037Z,8.70
2023-04-25T05:26:44.451Z,8.60
2023-04-25T05:29:36.185Z,8.70
2023-04-25T05:32:23.319Z,8.60
2023-04-25T05:34:52.432Z,8.60
2023-04-25T05:37:31.438Z,8.60
2023-04-25T05:40:08.638Z,8.60
2023-04-25T05:42:49.048Z,8.60
2023-04-25T05:45:22.182Z,8.50
2023-04-25T05:48:13.248Z,8.40
2023-04-25T05:50:59.424Z,8.40
2023-04-25T05:53:47.285Z,8.40
2023-04-25T05:56:16.078Z,8.50
2023-04-25T05:58:44.134Z,8.60
2023-04-25T06:01:13.592Z,8.60
2023-04-25T06:03:44.155Z,8.60
2023-04-25T06:06:13.028Z,8.60
2023-04-25T06:08:41.768Z,8.70
2023-04-25T06:11:12.759Z,8.90
2023-04-25T06:13:40.391Z,9.10
2023-04-25T06:16:08.517Z,9.10
2023-04-25T06:18:36.146Z,9.20
2023-04-25T06:21:03.753Z,9.10
2023-04-25T06:23:31.798Z,9.10
2023-04-25T06:26:08.215Z,8.90
2023-04-25T06:28:38.695Z,8.90
2023-04-25T06:31:06.335Z,8.90
2023-04-25T06:33:33.925Z,8.90
2023-04-25T06:36:01.846Z,8.90
2023-04-25T06:38:30.444Z,8.90
2023-04-25T06:40:58.775Z,9.00
2023-04-25T06:43:29.710Z,9.20
2023-04-25T06:46:32.613Z,9.10
2023-04-25T06:49:00.824Z,9.30
2023-04-25T06:51:30.671Z,9.30
2023-04-25T06:53:58.955Z,9.00
2023-04-25T06:56:32.047Z,8.90
2023-04-25T06:59:07.038Z,9.10
2023-04-25T07:01:37.181Z,9.20
2023-04-25T07:04:08.479Z,9.30
2023-04-25T07:06:43.492Z,9.30
2023-04-25T07:09:12.227Z,9.30
2023-04-25T07:11:40.296Z,9.20
2023-04-25T07:14:08.320Z,9.20
2023-04-25T07:16:35.904Z,9.20
2023-04-25T07:19:03.859Z,9.10
2023-04-25T07:21:32.202Z,9.00
2023-04-25T07:24:02.059Z,9.00
2023-04-25T07:26:34.793Z,9.00
2023-04-25T07:29:20.662Z,9.00
2023-04-25T07:31:48.774Z,9.00
2023-04-25T07:34:16.703Z,8.90
2023-04-25T07:36:46.034Z,8.80
2023-04-25T07:39:13.732Z,8.80
2023-04-25T07:41:41.640Z,8.70
2023-04-25T07:44:13.746Z,8.80
2023-04-25T07:46:41.563Z,8.60
2023-04-25T07:49:11.276Z,8.60
2023-04-25T07:51:39.918Z,8.60
2023-04-25T07:54:15.570Z,8.60
2023-04-25T07:56:52.685Z,8.50
2023-04-25T07:59:23.179Z,8.40
2023-04-25T08:01:51.379Z,8.40
2023-04-25T08:04:20.832Z,8.30
2023-04-25T08:06:59.003Z,8.30
2023-04-25T08:09:34.800Z,8.40
2023-04-25T08:12:04.995Z,8.40
2023-04-25T08:14:37.008Z,8.40
2023-04-25T08:17:06.488Z,8.60
2023-04-25T08:19:36.724Z,8.70
2023-04-25T08:22:04.360Z,8.60
2023-04-25T08:24:43.293Z,8.70
2023-04-25T08:27:10.879Z,8.80
2023-04-25T08:29:38.593Z,8.70
2023-04-25T08:32:06.339Z,8.90
2023-04-25T08:34:37.720Z,9.10
2023-04-25T08:37:06.306Z,9.20
2023-04-25T08:40:00.037Z,9.20
2023-04-25T08:42:28.623Z,9.20
2023-04-25T08:44:57.188Z,9.20
2023-04-25T08:47:30.638Z,9.20
2023-04-25T08:50:00.549Z,9.30
2023-04-25T08:52:36.234Z,9.30
2023-04-25T08:55:05.661Z,9.30
2023-04-25T08:57:35.401Z,9.30
2023-04-25T09:00:04.709Z,9.20
2023-04-25T09:02:35.262Z,9.00
2023-04-25T09:05:05.249Z,9.10
2023-04-25T09:07:32.951Z,9.00
2023-04-25T09:10:02.797Z,9.00
2023-04-25T09:12:33.090Z,8.90
2023-04-25T09:15:13.126Z,8.70
2023-04-25T09:18:12.610Z,8.80
2023-04-25T09:21:00.816Z,9.00
2023-04-25T09:23:30.323Z,9.10
2023-04-25T09:25:57.826Z,9.20
2023-04-25T09:28:30.105Z,9.00
2023-04-25T09:30:59.687Z,9.10
2023-04-25T09:33:39.456Z,9.10
2023-04-25T09:36:11.948Z,8.70
2023-04-25T09:39:16.198Z,8.50
2023-04-25T09:41:54.364Z,8.40
2023-04-25T09:44:25.727Z,8.50
2023-04-25T09:46:55.179Z,8.60
2023-04-25T09:49:28.830Z,8.40
2023-04-25T09:52:02.648Z,8.50
2023-04-25T09:54:37.039Z,8.30
2023-04-25T09:57:24.043Z,8.00
2023-04-25T09:59:56.891Z,7.90
2023-04-25T10:02:28.211Z,7.90
2023-04-25T10:05:04.361Z,7.90
2023-04-25T10:07:39.726Z,7.80
2023-04-25T10:10:15.063Z,7.60
2023-04-25T10:12:45.052Z,7.40
2023-04-25T10:15:15.305Z,7.30
2023-04-25T10:17:43.829Z,7.30
2023-04-25T10:20:12.309Z,7.10
2023-04-25T10:22:45.132Z,6.90
2023-04-25T10:25:13.711Z,7.10
2023-04-25T10:27:41.908Z,7.10
2023-04-25T10:30:16.028Z,7.00
2023-04-25T10:32:46.600Z,7.00
2023-04-25T10:35:29.422Z,7.10
2023-04-25T10:38:10.889Z,7.20
2023-04-25T10:40:38.444Z,7.20
2023-04-25T10:43:38.813Z,7.20
2023-04-25T10:46:27.261Z,7.10
2023-04-25T10:49:00.744Z,7.20
2023-04-25T10:51:51.485Z,7.10
2023-04-25T10:54:24.065Z,7.20
2023-04-25T10:56:52.244Z,7.40
2023-04-25T10:59:20.584Z,7.50
2023-04-25T11:01:52.405Z,7.60
2023-04-25T11:04:37.211Z,7.70
2023-04-25T11:07:25.081Z,7.60
2023-04-25T11:09:53.035Z,7.60
2023-04-25T11:12:20.717Z,7.60
2023-04-25T11:14:48.282Z,7.80
2023-04-25T11:17:16.023Z,7.90
2023-04-25T11:19:43.510Z,7.90
2023-04-25T11:22:13.236Z,7.90
2023-04-25T11:24:40.763Z,7.70
2023-04-25T11:27:08.312Z,7.60
2023-04-25T11:29:36.276Z,7.60
2023-04-25T11:32:03.978Z,7.60
2023-04-25T11:34:34.353Z,7.70
2023-04-25T11:37:03.591Z,7.70
2023-04-25T11:39:31.375Z,7.70
2023-04-25T11:42:01.343Z,7.90
2023-04-25T11:44:30.746Z,7.80
2023-04-25T11:46:58.489Z,8.00
2023-04-25T11:49:33.189Z,7.90
2023-04-25T11:52:00.798Z,8.10
2023-04-25T11:54:28.362Z,8.20
2023-04-25T11:56:56.016Z,8.10
2023-04-25T11:59:32.777Z,8.10
2023-04-25T12:02:02.593Z,8.30
2023-04-25T12:04:33.326Z,8.70
2023-04-25T12:07:02.549Z,8.80
2023-04-25T12:09:34.755Z,9.00
2023-04-25T12:12:03.868Z,9.30
2023-04-25T12:14:36.912Z,9.50
2023-04-25T12:17:08.733Z,9.60
2023-04-25T12:19:42.113Z,9.50
2023-04-25T12:22:24.743Z,9.50
2023-04-25T12:24:54.256Z,9.40
2023-04-25T12:27:21.780Z,9.40
2023-04-25T12:29:57.187Z,9.60
2023-04-25T12:32:25.316Z,9.40
2023-04-25T12:34:52.950Z,9.30
2023-04-25T12:37:20.571Z,9.40
2023-04-25T12:39:48.042Z,9.40
2023-04-25T12:42:15.701Z,9.60
2023-04-25T12:44:43.183Z,9.50
2023-04-25T12:47:11.118Z,9.50
2023-04-25T12:49:38.818Z,9.50
2023-04-25T12:52:06.393Z,9.40
2023-04-25T12:54:33.978Z,9.60
2023-04-25T12:57:03.758Z,9.40
2023-04-25T12:59:31.441Z,9.20
2023-04-25T13:01:58.972Z,9.10
2023-04-25T13:04:26.654Z,9.00
2023-04-25T13:06:54.209Z,9.00
2023-04-25T13:09:22.010Z,8.90
2023-04-25T13:11:49.523Z,9.10
2023-04-25T13:14:17.203Z,9.10
2023-04-25T13:16:44.899Z,9.10
2023-04-25T13:19:12.474Z,9.20
2023-04-25T13:21:40.218Z,9.20
2023-04-25T13:24:07.974Z,9.10
2023-04-25T13:26:35.767Z,9.20
2023-04-25T13:29:04.568Z,9.30
2023-04-25T13:31:32.760Z,9.60
2023-04-25T13:34:00.422Z,9.40
2023-04-25T13:36:28.773Z,9.30
2023-04-25T13:38:56.248Z,9.50
2023-04-25T13:41:24.097Z,9.60
2023-04-25T13:43:52.200Z,9.50
2023-04-25T13:46:40.893Z,9.70
2023-04-25T13:49:12.673Z,9.50
2023-04-25T13:51:41.610Z,9.70
2023-04-25T13:54:09.170Z,9.90
2023-04-25T13:56:36.784Z,10.20
2023-04-25T13:59:04.437Z,10.10
2023-04-25T14:01:35.067Z,9.90
2023-04-25T14:04:05.024Z,9.90
2023-04-25T14:06:33.867Z,10.10
2023-04-25T14:09:05.445Z,10.20
2023-04-25T14:11:33.072Z,9.90
2023-04-25T14:14:00.674Z,9.80
2023-04-25T14:16:29.131Z,9.70
2023-04-25T14:18:57.120Z,9.80
2023-04-25T14:21:24.819Z,10.10
2023-04-25T14:23:52.682Z,10.30
2023-04-25T14:26:20.430Z,10.60
2023-04-25T14:28:47.913Z,10.70
2023-04-25T14:31:15.618Z,10.60
2023-04-25T14:33:44.180Z,10.40
2023-04-25T14:36:12.007Z,10.10
2023-04-25T14:38:39.536Z,10.20
2023-04-25T14:41:07.166Z,10.40
2023-04-25T14:43:34.629Z,10.40
2023-04-25T14:46:03.037Z,10.50
2023-04-25T14:48:30.917Z,10.50
2023-04-25T14:50:58.634Z,10.70
2023-04-25T14:53:26.405Z,11.10
2023-04-25T14:55:54.560Z,11.10
2023-04-25T14:58:22.308Z,11.10
2023-04-25T15:00:50.193Z,10.80
2023-04-25T15:03:19.117Z,10.80
2023-04-25T15:05:49.443Z,10.90
2023-04-25T15:08:17.017Z,10.90
2023-04-25T15:10:46.246Z,10.80
2023-04-25T15:13:13.989Z,10.60
2023-04-25T15:15:41.679Z,10.60
2023-04-25T15:18:09.225Z,10.60
2023-04-25T15:20:36.792Z,10.70
2023-04-25T15:23:05.750Z,10.80
2023-04-25T15:25:33.353Z,10.80
2023-04-25T15:28:00.916Z,10.80
2023-04-25T15:30:28.528Z,10.90
2023-04-25T15:32:56.306Z,11.00
2023-04-25T15:35:23.855Z,11.10
2023-04-25T15:37:52.195Z,11.00
2023-04-25T15:40:19.892Z,11.00
2023-04-25T15:42:53.972Z,10.90
2023-04-25T15:45:25.909Z,11.00
2023-04-25T15:47:57.234Z,11.00
2023-04-25T15:50:25.130Z,10.90
2023-04-25T15:52:52.657Z,11.00
2023-04-25T15:55:26.584Z,10.90
2023-04-25T15:57:54.089Z,10.90
2023-04-25T16:00:22.779Z,10.70
2023-04-25T16:02:50.794Z,10.50
2023-04-25T16:05:19.025Z,10.50
2023-04-25T16:07:47.862Z,10.30
2023-04-25T16:10:21.382Z,10.20
2023-04-25T16:12:50.067Z,10.20
2023-04-25T16:15:18.253Z,10.30
2023-04-25T16:17:46.117Z,10.50
2023-04-25T16:20:13.987Z,10.30
2023-04-25T16:22:43.245Z,10.20
2023-04-25T16:25:14.425Z,10.20
2023-04-25T16:27:42.135Z,10.10
2023-04-25T16:30:11.534Z,10.20
2023-04-25T16:32:41.687Z,10.10
2023-04-25T16:35:10.301Z,10.00
2023-04-25T16:37:37.886Z,10.10
2023-04-25T16:40:09.750Z,10.00
2023-04-25T16:42:37.394Z,9.90
2023-04-25T16:45:05.505Z,9.80
2023-04-25T16:47:33.148Z,9.70
2023-04-25T16:50:01.524Z,9.60
2023-04-25T16:52:29.003Z,9.50
2023-04-25T16:54:56.646Z,9.60
2023-04-25T16:57:24.148Z,9.60
2023-04-25T16:59:51.929Z,9.70
2023-04-25T17:02:19.582Z,9.40
2023-04-25T17:04:47.536Z,9.50
2023-04-25T17:07:15.899Z,9.60
2023-04-25T17:09:43.529Z,9.50
2023-04-25T17:12:11.047Z,9.40
2023-04-25T17:14:38.988Z,9.50
2023-04-25T17:17:06.940Z,9.40
2023-04-25T17:19:35.287Z,9.30
2023-04-25T17:22:02.813Z,9.30
2023-04-25T17:24:30.345Z,9.10
2023-04-25T17:26:57.942Z,8.60
2023-04-25T17:29:26.728Z,8.40
2023-04-25T17:31:54.374Z,8.30
2023-04-25T17:34:22.020Z,8.20
2023-04-25T17:36:50.011Z,8.00
2023-04-25T17:39:17.759Z,8.00
2023-04-25T17:41:45.692Z,7.70
2023-04-25T17:44:14.188Z,7.70
2023-04-25T17:46:41.754Z,7.70
2023-04-25T17:49:09.431Z,7.70
2023-04-25T17:51:37.379Z,7.70
2023-04-25T17:54:04.945Z,7.80
2023-04-25T17:56:37.395Z,7.80
2023-04-25T17:59:04.992Z,7.90
2023-04-25T18:01:32.802Z,7.90
2023-04-25T18:04:00.664Z,7.80
2023-04-25T18:06:28.314Z,7.90
2023-04-25T18:08:57.006Z,8.00
2023-04-25T18:11:25.024Z,8.10
2023-04-25T18:13:53.052Z,8.10
2023-04-25T18:16:21.057Z,8.10
2023-04-25T18:18:55.151Z,8.00
2023-04-25T18:21:22.847Z,8.00
2023-04-25T18:23:50.425Z,8.10
2023-04-25T18:26:18.174Z,8.20
2023-04-25T18:28:45.781Z,8.20
2023-04-25T18:31:13.926Z,8.20
2023-04-25T18:33:41.586Z,8.20
2023-04-25T18:36:09.108Z,8.20
2023-04-25T18:38:36.700Z,8.30
2023-04-25T18:41:21.095Z,8.20
2023-04-25T18:43:52.794Z,8.30
2023-04-25T18:46:22.634Z,8.20
2023-04-25T18:48:53.797Z,8.00
2023-04-25T18:51:23.325Z,8.00
2023-04-25T18:53:51.991Z,7.90
2023-04-25T18:56:22.547Z,8.00
2023-04-25T18:58:53.787Z,8.10
2023-04-25T19:01:26.256Z,8.10
2023-04-25T19:03:57.398Z,8.20
2023-04-25T19:06:29.356Z,8.20
2023-04-25T19:08:57.518Z,8.20
2023-04-25T19:11:25.306Z,8.20
2023-04-25T19:13:55.451Z,8.10
2023-04-25T19:16:23.763Z,8.10
2023-04-25T19:18:54.157Z,8.10
2023-04-25T19:21:21.873Z,8.00
2023-04-25T19:23:49.460Z,8.00
2023-04-25T19:26:18.510Z,8.00
2023-04-25T19:28:46.121Z,8.10
2023-04-25T19:31:13.828Z,8.10
2023-04-25T19:33:42.182Z,8.20
2023-04-25T19:36:09.732Z,8.10
2023-04-25T19:38:37.211Z,8.00
2023-04-25T19:41:04.717Z,8.00
2023-04-25T19:43:32.318Z,7.90
2023-04-25T19:45:59.968Z,7.80
2023-04-25T19:48:27.747Z,7.80
2023-04-25T19:50:55.436Z,7.80
2023-04-25T19:53:22.963Z,7.80
2023-04-25T19:55:50.916Z,7.90
2023-04-25T19:58:18.457Z,8.00
2023-04-25T20:00:46.021Z,8.00
2023-04-25T20:03:13.673Z,8.00
2023-04-25T20:05:41.199Z,8.00
2023-04-25T20:08:09.008Z,8.00
2023-04-25T20:10:37.242Z,8.10
2023-04-25T20:13:05.429Z,8.10
2023-04-25T20:15:32.906Z,8.00
2023-04-25T20:18:00.599Z,8.00
2023-04-25T20:20:28.415Z,7.90
2023-04-25T20:22:56.999Z,7.90
2023-04-25T20:25:24.940Z,7.90
2023-04-25T20:27:52.498Z,7.80
2023-04-25T20:30:20.086Z,7.80
2023-04-25T20:32:47.691Z,7.70
2023-04-25T20:35:15.621Z,7.70
2023-04-25T20:37:43.362Z,7.60
2023-04-25T20:40:11.706Z,7.50
2023-04-25T20:42:39.357Z,7.60
2023-04-25T20:45:12.586Z,7.70
2023-04-25T20:47:41.302Z,7.70
2023-04-25T20:50:09.269Z,7.60
2023-04-25T20:52:38.534Z,7.60
2023-04-25T20:55:07.408Z,7.50
2023-04-25T20:57:34.913Z,7.50
2023-04-25T21:00:16.885Z,7.70
2023-04-25T21:02:46.566Z,7.70
2023-04-25T21:05:14.366Z,7.70
2023-04-25T21:07:42.215Z,7.80
2023-04-25T21:10:10.313Z,7.80
2023-04-25T21:12:37.965Z,7.70
2023-04-25T21:15:06.151Z,7.70
2023-04-25T21:17:33.773Z,7.70
2023-04-25T21:20:01.275Z,7.70
2023-04-25T21:22:28.762Z,7.70
2023-04-25T21:24:57.128Z,7.60
2023-04-25T21:27:24.728Z,7.60
2023-04-25T21:29:52.213Z,7.60
2023-04-25T21:32:21.774Z,7.60
2023-04-25T21:34:49.285Z,7.70
2023-04-25T21:37:16.785Z,7.70
2023-04-25T21:39:44.523Z,7.60
2023-04-25T21:42:13.207Z,7.60
2023-04-25T21:44:40.688Z,7.50
2023-04-25T21:47:08.308Z,7.50
2023-04-25T21:49:36.147Z,7.50
2023-04-25T21:52:03.794Z,7.50
2023-04-25T21:54:31.708Z,7.50
2023-04-25T21:56:59.397Z,7.40
2023-04-25T21:59:27.226Z,7.40
2023-04-25T22:01:55.135Z,7.40
2023-04-25T22:04:22.946Z,7.50
2023-04-25T22:06:50.633Z,7.50
2023-04-25T22:09:18.711Z,7.50
2023-04-25T22:11:46.999Z,7.50
2023-04-25T22:14:14.813Z,7.50
2023-04-25T22:16:42.387Z,7.50
2023-04-25T22:19:09.983Z,7.60
2023-04-25T22:21:37.616Z,7.70
2023-04-25T22:24:06.200Z,7.60
2023-04-25T22:26:34.516Z,7.50
2023-04-25T22:29:02.573Z,7.40
2023-04-25T22:31:30.335Z,7.50
2023-04-25T22:33:57.967Z,7.60
2023-04-25T22:36:25.524Z,7.60
2023-04-25T22:38:53.969Z,7.50
2023-04-25T22:41:23.566Z,7.50
2023-04-25T22:43:51.120Z,7.50
2023-04-25T22:46:20.863Z,7.50
2023-04-25T22:48:48.780Z,7.50
2023-04-25T22:51:16.845Z,7.40
2023-04-25T22:53:45.253Z,7.40
2023-04-25T22:56:13.010Z,7.50
2023-04-25T22:58:40.831Z,7.40
2023-04-25T23:01:08.756Z,7.40
2023-04-25T23:03:36.370Z,7.40
2023-04-25T23:06:05.298Z,7.30
2023-04-25T23:08:33.176Z,7.30
2023-04-25T23:11:29.540Z,7.40
2023-04-25T23:13:58.617Z,7.40
2023-04-25T23:16:26.362Z,7.20
2023-04-25T23:18:54.184Z,7.20
2023-04-25T23:21:21.905Z,7.20
2023-04-25T23:23:49.385Z,7.20
2023-04-25T23:26:17.130Z,7.10
2023-04-25T23:28:46.619Z,7.10
2023-04-25T23:31:14.175Z,7.00
2023-04-25T23:33:41.711Z,7.00
2023-04-25T23:36:19.825Z,7.00
2023-04-25T23:38:48.277Z,7.10
2023-04-25T23:41:15.996Z,7.20
2023-04-25T23:43:43.469Z,7.20
2023-04-25T23:46:12.442Z,7.20
2023-04-25T23:48:40.097Z,7.10
2023-04-25T23:51:07.631Z,7.10
2023-04-25T23:53:35.114Z,7.20
2023-04-25T23:56:02.933Z,7.20
2023-04-25T23:58:30.597Z,7.30
